sensor_id;sensor_type;location;lat;lon;timestamp;P1;durP1;ratioP1;P2;durP2;ratioP2
11671;SDS011;5892;43.412;24.612;2024-01-30T03:03:13;13.98;;;7.28;;
11671;SDS011;5892;43.412;24.612;2024-01-30T03:05:39;18.60;;;7.93;;
11671;SDS011;5892;43.412;24.612;2024-01-30T03:08:06;17.33;;;8.00;;
11671;SDS011;5892;43.412;24.612;2024-01-30T03:18:21;17.67;;;8.07;;
11671;SDS011;5892;43.412;24.612;2024-01-30T03:21:15;19.40;;;9.00;;
11671;SDS011;5892;43.412;24.612;2024-01-30T03:23:48;19.73;;;9.90;;
11671;SDS011;5892;43.412;24.612;2024-01-30T05:45:11;16.75;;;5.85;;
11671;SDS011;5892;43.412;24.612;2024-01-30T05:54:23;11.68;;;6.88;;
11671;SDS011;5892;43.412;24.612;2024-01-30T05:56:48;12.77;;;4.90;;
11671;SDS011;5892;43.412;24.612;2024-01-30T06:05:33;10.90;;;4.90;;
11671;SDS011;5892;43.412;24.612;2024-01-30T06:07:59;10.48;;;4.80;;
11671;SDS011;5892;43.412;24.612;2024-01-30T06:10:26;11.55;;;6.10;;
11671;SDS011;5892;43.412;24.612;2024-01-30T06:12:55;13.40;;;5.38;;
11671;SDS011;5892;43.412;24.612;2024-01-30T06:18:51;13.10;;;6.45;;
11671;SDS011;5892;43.412;24.612;2024-01-30T06:21:23;16.13;;;6.47;;
11671;SDS011;5892;43.412;24.612;2024-01-30T06:23:49;12.57;;;5.97;;
11671;SDS011;5892;43.412;24.612;2024-01-30T06:35:53;16.98;;;7.88;;
11671;SDS011;5892;43.412;24.612;2024-01-30T06:38:19;17.42;;;8.10;;
11671;SDS011;5892;43.412;24.612;2024-01-30T06:40:46;15.48;;;7.45;;
11671;SDS011;5892;43.412;24.612;2024-01-30T06:43:15;14.30;;;6.85;;
11671;SDS011;5892;43.412;24.612;2024-01-30T06:45:43;12.75;;;6.50;;
11671;SDS011;5892;43.412;24.612;2024-01-30T06:48:09;15.70;;;5.93;;
11671;SDS011;5892;43.412;24.612;2024-01-30T06:50:35;15.27;;;6.30;;
11671;SDS011;5892;43.412;24.612;2024-01-30T06:53:02;13.45;;;6.43;;
11671;SDS011;5892;43.412;24.612;2024-01-30T06:55:40;18.02;;;6.90;;
11671;SDS011;5892;43.412;24.612;2024-01-30T07:04:49;15.43;;;6.97;;
11671;SDS011;5892;43.412;24.612;2024-01-30T07:07:16;17.40;;;6.65;;
11671;SDS011;5892;43.412;24.612;2024-01-30T07:15:34;18.95;;;6.97;;
11671;SDS011;5892;43.412;24.612;2024-01-30T07:18:02;17.67;;;5.65;;
11671;SDS011;5892;43.412;24.612;2024-01-30T07:20:35;13.82;;;6.43;;
11671;SDS011;5892;43.412;24.612;2024-01-30T07:23:00;14.10;;;6.80;;
11671;SDS011;5892;43.412;24.612;2024-01-30T07:25:33;11.73;;;5.57;;
11671;SDS011;5892;43.412;24.612;2024-01-30T07:28:01;12.63;;;5.90;;
11671;SDS011;5892;43.412;24.612;2024-01-30T07:30:30;19.55;;;6.43;;
11671;SDS011;5892;43.412;24.612;2024-01-30T07:32:57;11.73;;;5.97;;
11671;SDS011;5892;43.412;24.612;2024-01-30T07:35:24;12.82;;;6.00;;
11671;SDS011;5892;43.412;24.612;2024-01-30T07:37:50;12.25;;;6.53;;
11671;SDS011;5892;43.412;24.612;2024-01-30T07:40:25;11.52;;;5.53;;
11671;SDS011;5892;43.412;24.612;2024-01-30T07:42:52;13.25;;;6.32;;
11671;SDS011;5892;43.412;24.612;2024-01-30T07:51:44;12.40;;;5.53;;
11671;SDS011;5892;43.412;24.612;2024-01-30T07:57:55;13.68;;;6.97;;
11671;SDS011;5892;43.412;24.612;2024-01-30T08:17:32;17.85;;;5.57;;
11671;SDS011;5892;43.412;24.612;2024-01-30T08:34:17;15.15;;;5.65;;
11671;SDS011;5892;43.412;24.612;2024-01-30T08:36:42;11.68;;;6.70;;
11671;SDS011;5892;43.412;24.612;2024-01-30T08:59:10;11.25;;;5.55;;
11671;SDS011;5892;43.412;24.612;2024-01-30T09:34:43;13.43;;;5.97;;
11671;SDS011;5892;43.412;24.612;2024-01-30T09:48:17;15.20;;;7.32;;
11671;SDS011;5892;43.412;24.612;2024-01-30T10:15:50;12.65;;;5.40;;
11671;SDS011;5892;43.412;24.612;2024-01-30T10:18:21;12.02;;;5.60;;
11671;SDS011;5892;43.412;24.612;2024-01-30T12:36:57;7.82;;;3.92;;
11671;SDS011;5892;43.412;24.612;2024-01-30T12:46:34;7.18;;;3.65;;
11671;SDS011;5892;43.412;24.612;2024-01-30T12:49:00;8.15;;;3.25;;
11671;SDS011;5892;43.412;24.612;2024-01-30T12:51:28;9.02;;;4.28;;
11671;SDS011;5892;43.412;24.612;2024-01-30T13:22:25;15.63;;;6.65;;
11671;SDS011;5892;43.412;24.612;2024-01-30T14:04:32;14.32;;;8.35;;
11671;SDS011;5892;43.412;24.612;2024-01-30T14:47:20;15.55;;;6.93;;
11671;SDS011;5892;43.412;24.612;2024-01-30T14:49:46;21.75;;;9.95;;
11671;SDS011;5892;43.412;24.612;2024-01-30T15:13:37;40.72;;;17.80;;
11671;SDS011;5892;43.412;24.612;2024-01-30T15:16:02;39.33;;;20.25;;
11671;SDS011;5892;43.412;24.612;2024-01-30T15:18:35;25.00;;;13.13;;
11671;SDS011;5892;43.412;24.612;2024-01-30T15:21:00;19.80;;;9.93;;
11671;SDS011;5892;43.412;24.612;2024-01-30T15:23:27;54.50;;;28.45;;
11671;SDS011;5892;43.412;24.612;2024-01-30T15:25:57;35.50;;;16.45;;
11671;SDS011;5892;43.412;24.612;2024-01-30T15:41:19;20.45;;;9.73;;
11671;SDS011;5892;43.412;24.612;2024-01-30T15:49:17;16.67;;;8.95;;
11671;SDS011;5892;43.412;24.612;2024-01-30T16:02:03;13.73;;;6.80;;
11671;SDS011;5892;43.412;24.612;2024-01-30T16:04:30;18.05;;;7.22;;
11671;SDS011;5892;43.412;24.612;2024-01-30T16:06:57;19.65;;;6.80;;
11671;SDS011;5892;43.412;24.612;2024-01-30T16:14:32;21.25;;;8.07;;
11671;SDS011;5892;43.412;24.612;2024-01-30T16:17:01;17.48;;;7.43;;
11671;SDS011;5892;43.412;24.612;2024-01-30T16:19:27;15.02;;;6.70;;
11671;SDS011;5892;43.412;24.612;2024-01-30T16:21:53;13.27;;;6.93;;
11671;SDS011;5892;43.412;24.612;2024-01-30T16:42:38;33.35;;;13.85;;
11671;SDS011;5892;43.412;24.612;2024-01-30T16:45:04;34.05;;;11.57;;
11671;SDS011;5892;43.412;24.612;2024-01-30T16:55:21;14.45;;;8.30;;
11671;SDS011;5892;43.412;24.612;2024-01-30T18:14:33;23.15;;;10.68;;
11671;SDS011;5892;43.412;24.612;2024-01-30T18:17:04;41.25;;;20.05;;
11671;SDS011;5892;43.412;24.612;2024-01-30T18:29:50;30.90;;;14.00;;
11671;SDS011;5892;43.412;24.612;2024-01-30T18:32:16;34.28;;;13.98;;
11671;SDS011;5892;43.412;24.612;2024-01-30T18:53:50;22.02;;;11.20;;
11671;SDS011;5892;43.412;24.612;2024-01-30T18:56:19;21.17;;;10.68;;
11671;SDS011;5892;43.412;24.612;2024-01-30T18:58:46;22.55;;;9.52;;
11671;SDS011;5892;43.412;24.612;2024-01-30T19:01:12;22.33;;;11.05;;
11671;SDS011;5892;43.412;24.612;2024-01-30T19:03:38;27.50;;;11.27;;
11671;SDS011;5892;43.412;24.612;2024-01-30T19:06:04;22.55;;;10.48;;
11671;SDS011;5892;43.412;24.612;2024-01-30T19:08:32;18.45;;;9.02;;
11671;SDS011;5892;43.412;24.612;2024-01-30T19:52:34;19.05;;;9.07;;
11671;SDS011;5892;43.412;24.612;2024-01-30T19:55:12;20.33;;;10.70;;
11671;SDS011;5892;43.412;24.612;2024-01-30T19:57:38;23.40;;;9.55;;
11671;SDS011;5892;43.412;24.612;2024-01-30T20:00:04;14.68;;;8.27;;
11671;SDS011;5892;43.412;24.612;2024-01-30T20:02:35;18.90;;;9.02;;
11671;SDS011;5892;43.412;24.612;2024-01-30T20:05:01;20.02;;;9.48;;
11671;SDS011;5892;43.412;24.612;2024-01-30T20:07:27;17.55;;;9.30;;
11671;SDS011;5892;43.412;24.612;2024-01-30T20:09:54;19.88;;;10.20;;
11671;SDS011;5892;43.412;24.612;2024-01-30T20:12:24;17.33;;;8.60;;
11671;SDS011;5892;43.412;24.612;2024-01-30T20:14:50;16.55;;;7.70;;
11671;SDS011;5892;43.412;24.612;2024-01-30T20:17:15;14.35;;;8.27;;
11671;SDS011;5892;43.412;24.612;2024-01-30T20:19:44;18.55;;;9.13;;
11671;SDS011;5892;43.412;24.612;2024-01-30T20:22:10;15.88;;;8.38;;
11671;SDS011;5892;43.412;24.612;2024-01-30T20:24:36;18.85;;;8.52;;
11671;SDS011;5892;43.412;24.612;2024-01-30T20:27:02;15.23;;;7.45;;
11671;SDS011;5892;43.412;24.612;2024-01-30T20:29:28;15.77;;;7.78;;
11671;SDS011;5892;43.412;24.612;2024-01-30T20:31:55;18.63;;;8.15;;
11671;SDS011;5892;43.412;24.612;2024-01-30T20:34:21;14.95;;;7.13;;
11671;SDS011;5892;43.412;24.612;2024-01-30T20:36:48;13.65;;;6.97;;
11671;SDS011;5892;43.412;24.612;2024-01-30T20:39:13;13.43;;;7.38;;
11671;SDS011;5892;43.412;24.612;2024-01-30T20:41:43;16.40;;;6.82;;
11671;SDS011;5892;43.412;24.612;2024-01-30T20:44:09;18.25;;;7.00;;
11671;SDS011;5892;43.412;24.612;2024-01-30T20:46:36;13.18;;;7.13;;
11671;SDS011;5892;43.412;24.612;2024-01-30T20:49:01;14.07;;;7.45;;
11671;SDS011;5892;43.412;24.612;2024-01-30T20:51:27;14.15;;;7.00;;
11671;SDS011;5892;43.412;24.612;2024-01-30T20:53:54;17.02;;;8.68;;
11671;SDS011;5892;43.412;24.612;2024-01-30T20:56:21;14.15;;;7.20;;
11671;SDS011;5892;43.412;24.612;2024-01-30T20:58:46;13.90;;;6.38;;
11671;SDS011;5892;43.412;24.612;2024-01-30T21:01:12;15.57;;;6.95;;
11671;SDS011;5892;43.412;24.612;2024-01-30T21:03:37;15.32;;;7.82;;
11671;SDS011;5892;43.412;24.612;2024-01-30T21:06:06;12.93;;;7.13;;
11671;SDS011;5892;43.412;24.612;2024-01-30T21:08:34;15.50;;;6.68;;
11671;SDS011;5892;43.412;24.612;2024-01-30T21:11:01;16.20;;;7.00;;
11671;SDS011;5892;43.412;24.612;2024-01-30T21:13:27;16.23;;;7.28;;
11671;SDS011;5892;43.412;24.612;2024-01-30T21:15:53;18.27;;;8.25;;
11671;SDS011;5892;43.412;24.612;2024-01-30T21:18:18;15.57;;;7.35;;
11671;SDS011;5892;43.412;24.612;2024-01-30T21:20:43;15.48;;;7.20;;
11671;SDS011;5892;43.412;24.612;2024-01-30T21:23:09;17.95;;;7.07;;
11671;SDS011;5892;43.412;24.612;2024-01-30T21:25:34;17.48;;;7.60;;
11671;SDS011;5892;43.412;24.612;2024-01-30T21:28:02;12.25;;;6.97;;
11671;SDS011;5892;43.412;24.612;2024-01-30T21:30:40;13.40;;;6.50;;
11671;SDS011;5892;43.412;24.612;2024-01-30T21:33:06;15.10;;;6.50;;
11671;SDS011;5892;43.412;24.612;2024-01-30T21:35:36;12.45;;;6.35;;
11671;SDS011;5892;43.412;24.612;2024-01-30T21:38:05;18.45;;;7.38;;
11671;SDS011;5892;43.412;24.612;2024-01-30T21:40:31;12.20;;;5.22;;
11671;SDS011;5892;43.412;24.612;2024-01-30T21:42:57;12.45;;;6.90;;
11671;SDS011;5892;43.412;24.612;2024-01-30T21:45:24;12.93;;;6.10;;
11671;SDS011;5892;43.412;24.612;2024-01-30T21:47:53;12.80;;;5.82;;
11671;SDS011;5892;43.412;24.612;2024-01-30T21:50:19;19.10;;;7.82;;
11671;SDS011;5892;43.412;24.612;2024-01-30T21:52:45;13.65;;;6.28;;
11671;SDS011;5892;43.412;24.612;2024-01-30T21:55:11;10.38;;;6.18;;
11671;SDS011;5892;43.412;24.612;2024-01-30T21:57:37;15.27;;;7.15;;
11671;SDS011;5892;43.412;24.612;2024-01-30T22:00:03;11.90;;;6.75;;
11671;SDS011;5892;43.412;24.612;2024-01-30T22:51:40;24.67;;;12.20;;
11671;SDS011;5892;43.412;24.612;2024-01-30T22:54:08;18.65;;;9.93;;
11671;SDS011;5892;43.412;24.612;2024-01-30T23:06:22;31.60;;;16.33;;
11671;SDS011;5892;43.412;24.612;2024-01-30T23:09:00;23.77;;;11.52;;
11671;SDS011;5892;43.412;24.612;2024-01-30T23:11:38;23.73;;;10.52;;
11671;SDS011;5892;43.412;24.612;2024-01-30T23:14:05;19.65;;;9.50;;
11671;SDS011;5892;43.412;24.612;2024-01-30T23:16:30;22.08;;;11.93;;
11671;SDS011;5892;43.412;24.612;2024-01-30T23:22:19;17.45;;;9.57;;
11671;SDS011;5892;43.412;24.612;2024-01-30T23:30:35;17.23;;;7.43;;
11671;SDS011;5892;43.412;24.612;2024-01-30T23:33:03;15.38;;;8.40;;
11671;SDS011;5892;43.412;24.612;2024-01-30T23:35:42;16.00;;;9.07;;
11671;SDS011;5892;43.412;24.612;2024-01-30T23:38:13;19.75;;;9.40;;
11671;SDS011;5892;43.412;24.612;2024-01-30T23:40:38;21.13;;;8.80;;
11671;SDS011;5892;43.412;24.612;2024-01-30T23:43:07;19.40;;;9.15;;
11671;SDS011;5892;43.412;24.612;2024-01-30T23:51:20;15.52;;;5.70;;
